Terminal Aerodrome Forecast
Issued by NWS Upton, NY

Home | Current Version | Previous Version | Text Only | Print | Product List | Glossary On
Versions: 1 2 3 4 5 6 7 8 9 10 11 12 13 14 15 16 17 18 19 20 21 22 23 24 25 26 27 28 29 30
000
FTUS41 KOKX 172000 AAB
TAFBDR
TAF AMD
KBDR 172044Z 1721/1818 29010KT P6SM OVC035
     FM172200 29010KT P6SM BKN040
     FM180000 29010KT P6SM SCT040 BKN060
     FM180600 28012G20KT P6SM BKN060
     FM181100 27010KT P6SM SCT060
     FM181400 29016G24KT P6SM SCT035=

USA.gov is the U.S. government's official web portal to all federal, state and local government web resources and services.